sensor_id;sensor_type;location;lat;lon;timestamp;P1;durP1;ratioP1;P2;durP2;ratioP2
1751;SDS011;873;47.696;8.068;2022-12-07T00:03:47;26.90;;;13.60;;
1751;SDS011;873;47.696;8.068;2022-12-07T00:06:14;29.27;;;13.03;;
1751;SDS011;873;47.696;8.068;2022-12-07T00:08:40;25.73;;;14.07;;
1751;SDS011;873;47.696;8.068;2022-12-07T00:11:08;26.30;;;14.73;;
1751;SDS011;873;47.696;8.068;2022-12-07T00:13:35;28.17;;;12.03;;
1751;SDS011;873;47.696;8.068;2022-12-07T00:16:02;26.17;;;13.33;;
1751;SDS011;873;47.696;8.068;2022-12-07T00:18:29;32.70;;;13.27;;
1751;SDS011;873;47.696;8.068;2022-12-07T00:20:59;27.00;;;12.67;;
1751;SDS011;873;47.696;8.068;2022-12-07T00:23:26;27.67;;;14.00;;
1751;SDS011;873;47.696;8.068;2022-12-07T00:25:51;32.93;;;14.57;;
1751;SDS011;873;47.696;8.068;2022-12-07T00:28:17;29.53;;;15.00;;
1751;SDS011;873;47.696;8.068;2022-12-07T00:30:42;31.47;;;14.37;;
1751;SDS011;873;47.696;8.068;2022-12-07T00:33:07;48.37;;;14.07;;
1751;SDS011;873;47.696;8.068;2022-12-07T00:35:33;42.90;;;15.83;;
1751;SDS011;873;47.696;8.068;2022-12-07T00:37:58;31.20;;;14.90;;
1751;SDS011;873;47.696;8.068;2022-12-07T00:40:24;35.43;;;15.73;;
1751;SDS011;873;47.696;8.068;2022-12-07T00:42:49;34.93;;;16.10;;
1751;SDS011;873;47.696;8.068;2022-12-07T00:45:15;34.67;;;16.30;;
1751;SDS011;873;47.696;8.068;2022-12-07T00:47:40;35.03;;;15.87;;
1751;SDS011;873;47.696;8.068;2022-12-07T00:50:06;41.43;;;15.40;;
1751;SDS011;873;47.696;8.068;2022-12-07T00:52:32;45.90;;;16.47;;
1751;SDS011;873;47.696;8.068;2022-12-07T00:54:57;61.50;;;16.20;;
1751;SDS011;873;47.696;8.068;2022-12-07T00:57:23;56.90;;;17.80;;
1751;SDS011;873;47.696;8.068;2022-12-07T00:59:48;78.57;;;18.63;;
1751;SDS011;873;47.696;8.068;2022-12-07T01:02:14;41.00;;;17.13;;
1751;SDS011;873;47.696;8.068;2022-12-07T01:04:39;121.10;;;19.67;;
1751;SDS011;873;47.696;8.068;2022-12-07T01:07:05;32.07;;;14.53;;
1751;SDS011;873;47.696;8.068;2022-12-07T01:09:30;117.67;;;20.17;;
1751;SDS011;873;47.696;8.068;2022-12-07T01:11:56;97.73;;;17.93;;
1751;SDS011;873;47.696;8.068;2022-12-07T01:14:21;40.27;;;15.83;;
1751;SDS011;873;47.696;8.068;2022-12-07T01:16:47;98.10;;;17.83;;
1751;SDS011;873;47.696;8.068;2022-12-07T01:19:12;122.03;;;19.03;;
1751;SDS011;873;47.696;8.068;2022-12-07T01:21:38;91.63;;;16.30;;
1751;SDS011;873;47.696;8.068;2022-12-07T01:24:04;100.97;;;16.43;;
1751;SDS011;873;47.696;8.068;2022-12-07T01:26:31;41.23;;;16.20;;
1751;SDS011;873;47.696;8.068;2022-12-07T01:28:56;143.80;;;18.93;;
1751;SDS011;873;47.696;8.068;2022-12-07T01:31:24;81.93;;;18.43;;
1751;SDS011;873;47.696;8.068;2022-12-07T01:33:52;74.87;;;16.77;;
1751;SDS011;873;47.696;8.068;2022-12-07T01:36:22;42.70;;;16.77;;
1751;SDS011;873;47.696;8.068;2022-12-07T01:39:01;55.60;;;16.53;;
1751;SDS011;873;47.696;8.068;2022-12-07T01:41:30;63.33;;;15.40;;
1751;SDS011;873;47.696;8.068;2022-12-07T01:44:15;50.50;;;16.03;;
1751;SDS011;873;47.696;8.068;2022-12-07T01:46:54;40.93;;;14.73;;
1751;SDS011;873;47.696;8.068;2022-12-07T01:49:23;103.53;;;19.03;;
1751;SDS011;873;47.696;8.068;2022-12-07T01:51:53;100.43;;;16.50;;
1751;SDS011;873;47.696;8.068;2022-12-07T01:54:26;64.57;;;15.23;;
1751;SDS011;873;47.696;8.068;2022-12-07T01:56:52;61.87;;;15.93;;
1751;SDS011;873;47.696;8.068;2022-12-07T01:59:21;85.10;;;14.97;;
1751;SDS011;873;47.696;8.068;2022-12-07T02:01:49;34.77;;;14.87;;
1751;SDS011;873;47.696;8.068;2022-12-07T02:04:15;39.40;;;16.20;;
1751;SDS011;873;47.696;8.068;2022-12-07T02:06:41;47.90;;;15.23;;
1751;SDS011;873;47.696;8.068;2022-12-07T02:09:08;38.20;;;14.70;;
1751;SDS011;873;47.696;8.068;2022-12-07T02:11:33;47.67;;;15.43;;
1751;SDS011;873;47.696;8.068;2022-12-07T02:13:59;63.03;;;15.90;;
1751;SDS011;873;47.696;8.068;2022-12-07T02:19:07;55.90;;;16.10;;
1751;SDS011;873;47.696;8.068;2022-12-07T02:21:51;46.83;;;14.90;;
1751;SDS011;873;47.696;8.068;2022-12-07T02:24:24;43.80;;;15.57;;
1751;SDS011;873;47.696;8.068;2022-12-07T02:32:43;28.23;;;12.53;;
1751;SDS011;873;47.696;8.068;2022-12-07T02:35:19;30.00;;;14.67;;
1751;SDS011;873;47.696;8.068;2022-12-07T02:40:26;32.67;;;13.70;;
1751;SDS011;873;47.696;8.068;2022-12-07T02:43:00;33.80;;;13.93;;
1751;SDS011;873;47.696;8.068;2022-12-07T02:45:29;34.40;;;15.00;;
1751;SDS011;873;47.696;8.068;2022-12-07T02:47:57;78.57;;;17.07;;
1751;SDS011;873;47.696;8.068;2022-12-07T02:50:24;28.17;;;13.50;;
1751;SDS011;873;47.696;8.068;2022-12-07T02:52:49;30.57;;;13.83;;
1751;SDS011;873;47.696;8.068;2022-12-07T02:55:15;34.43;;;15.40;;
1751;SDS011;873;47.696;8.068;2022-12-07T03:00:20;30.13;;;13.83;;
1751;SDS011;873;47.696;8.068;2022-12-07T03:02:48;26.40;;;13.40;;
1751;SDS011;873;47.696;8.068;2022-12-07T03:11:16;18.50;;;9.80;;
1751;SDS011;873;47.696;8.068;2022-12-07T03:13:49;58.80;;;15.33;;
1751;SDS011;873;47.696;8.068;2022-12-07T03:16:20;20.43;;;11.40;;
1751;SDS011;873;47.696;8.068;2022-12-07T03:18:53;18.13;;;11.10;;
1751;SDS011;873;47.696;8.068;2022-12-07T03:21:22;19.50;;;10.57;;
1751;SDS011;873;47.696;8.068;2022-12-07T03:23:52;17.33;;;10.70;;
1751;SDS011;873;47.696;8.068;2022-12-07T03:26:19;19.07;;;10.27;;
1751;SDS011;873;47.696;8.068;2022-12-07T03:28:50;18.33;;;10.60;;
1751;SDS011;873;47.696;8.068;2022-12-07T03:31:21;19.33;;;11.33;;
1751;SDS011;873;47.696;8.068;2022-12-07T03:36:30;16.07;;;10.33;;
1751;SDS011;873;47.696;8.068;2022-12-07T03:41:39;22.57;;;12.40;;
1751;SDS011;873;47.696;8.068;2022-12-07T03:44:04;24.07;;;11.33;;
1751;SDS011;873;47.696;8.068;2022-12-07T03:52:26;20.87;;;11.20;;
1751;SDS011;873;47.696;8.068;2022-12-07T03:55:09;15.63;;;10.43;;
1751;SDS011;873;47.696;8.068;2022-12-07T03:57:47;16.20;;;10.30;;
1751;SDS011;873;47.696;8.068;2022-12-07T04:00:15;18.40;;;10.70;;
1751;SDS011;873;47.696;8.068;2022-12-07T04:02:41;20.00;;;11.20;;
1751;SDS011;873;47.696;8.068;2022-12-07T04:05:07;17.57;;;10.50;;
1751;SDS011;873;47.696;8.068;2022-12-07T04:07:33;20.33;;;11.67;;
1751;SDS011;873;47.696;8.068;2022-12-07T04:09:58;19.93;;;11.37;;
1751;SDS011;873;47.696;8.068;2022-12-07T04:12:24;16.73;;;10.60;;
1751;SDS011;873;47.696;8.068;2022-12-07T04:14:49;16.40;;;10.47;;
1751;SDS011;873;47.696;8.068;2022-12-07T04:17:15;17.60;;;10.87;;
1751;SDS011;873;47.696;8.068;2022-12-07T04:19:40;17.77;;;10.47;;
1751;SDS011;873;47.696;8.068;2022-12-07T04:22:07;14.97;;;9.20;;
1751;SDS011;873;47.696;8.068;2022-12-07T04:24:33;17.33;;;10.17;;
1751;SDS011;873;47.696;8.068;2022-12-07T04:26:58;14.50;;;9.37;;
1751;SDS011;873;47.696;8.068;2022-12-07T04:29:24;15.40;;;8.60;;
1751;SDS011;873;47.696;8.068;2022-12-07T04:31:50;12.97;;;8.93;;
1751;SDS011;873;47.696;8.068;2022-12-07T04:34:16;14.07;;;9.10;;
1751;SDS011;873;47.696;8.068;2022-12-07T04:36:42;14.87;;;8.70;;
1751;SDS011;873;47.696;8.068;2022-12-07T04:39:09;16.70;;;9.47;;
1751;SDS011;873;47.696;8.068;2022-12-07T04:41:42;22.13;;;11.80;;
1751;SDS011;873;47.696;8.068;2022-12-07T04:44:08;19.07;;;11.47;;
1751;SDS011;873;47.696;8.068;2022-12-07T04:46:33;22.47;;;11.30;;
1751;SDS011;873;47.696;8.068;2022-12-07T04:48:59;23.53;;;12.53;;
1751;SDS011;873;47.696;8.068;2022-12-07T04:51:26;25.13;;;11.90;;
1751;SDS011;873;47.696;8.068;2022-12-07T04:53:53;28.40;;;12.73;;
1751;SDS011;873;47.696;8.068;2022-12-07T04:56:19;23.97;;;12.57;;
1751;SDS011;873;47.696;8.068;2022-12-07T04:58:46;18.73;;;11.70;;
1751;SDS011;873;47.696;8.068;2022-12-07T05:01:13;25.67;;;11.93;;
1751;SDS011;873;47.696;8.068;2022-12-07T05:03:39;21.20;;;11.80;;
1751;SDS011;873;47.696;8.068;2022-12-07T05:06:05;23.93;;;13.23;;
1751;SDS011;873;47.696;8.068;2022-12-07T05:08:32;19.20;;;10.97;;
1751;SDS011;873;47.696;8.068;2022-12-07T05:10:58;24.00;;;11.47;;
1751;SDS011;873;47.696;8.068;2022-12-07T05:13:24;28.17;;;12.20;;
1751;SDS011;873;47.696;8.068;2022-12-07T05:15:49;39.30;;;13.13;;
1751;SDS011;873;47.696;8.068;2022-12-07T05:18:15;37.93;;;12.30;;
1751;SDS011;873;47.696;8.068;2022-12-07T05:20:41;25.00;;;11.67;;
1751;SDS011;873;47.696;8.068;2022-12-07T05:23:07;19.67;;;10.90;;
1751;SDS011;873;47.696;8.068;2022-12-07T05:25:33;19.77;;;10.03;;
1751;SDS011;873;47.696;8.068;2022-12-07T05:27:58;19.20;;;11.30;;
1751;SDS011;873;47.696;8.068;2022-12-07T05:30:24;21.40;;;12.07;;
1751;SDS011;873;47.696;8.068;2022-12-07T05:32:50;22.97;;;12.03;;
1751;SDS011;873;47.696;8.068;2022-12-07T05:35:16;23.00;;;11.90;;
1751;SDS011;873;47.696;8.068;2022-12-07T05:37:42;19.43;;;10.97;;
1751;SDS011;873;47.696;8.068;2022-12-07T05:40:08;18.87;;;11.37;;
1751;SDS011;873;47.696;8.068;2022-12-07T05:42:34;20.03;;;11.67;;
1751;SDS011;873;47.696;8.068;2022-12-07T05:45:00;21.87;;;11.23;;
1751;SDS011;873;47.696;8.068;2022-12-07T05:47:26;17.50;;;10.03;;
1751;SDS011;873;47.696;8.068;2022-12-07T05:49:51;19.10;;;10.93;;
1751;SDS011;873;47.696;8.068;2022-12-07T05:52:17;28.90;;;11.57;;
1751;SDS011;873;47.696;8.068;2022-12-07T05:54:42;34.10;;;11.90;;
1751;SDS011;873;47.696;8.068;2022-12-07T05:57:08;26.03;;;12.00;;
1751;SDS011;873;47.696;8.068;2022-12-07T05:59:34;31.67;;;13.10;;
1751;SDS011;873;47.696;8.068;2022-12-07T06:02:02;29.30;;;12.43;;
1751;SDS011;873;47.696;8.068;2022-12-07T06:04:39;48.23;;;14.27;;
1751;SDS011;873;47.696;8.068;2022-12-07T06:07:07;42.00;;;14.50;;
1751;SDS011;873;47.696;8.068;2022-12-07T06:09:33;31.30;;;14.63;;
1751;SDS011;873;47.696;8.068;2022-12-07T06:12:00;37.07;;;13.93;;
1751;SDS011;873;47.696;8.068;2022-12-07T06:14:45;31.33;;;13.60;;
1751;SDS011;873;47.696;8.068;2022-12-07T06:17:11;27.97;;;13.13;;
1751;SDS011;873;47.696;8.068;2022-12-07T06:19:37;31.83;;;13.90;;
1751;SDS011;873;47.696;8.068;2022-12-07T06:22:03;88.40;;;15.87;;
1751;SDS011;873;47.696;8.068;2022-12-07T06:24:30;46.87;;;14.20;;
1751;SDS011;873;47.696;8.068;2022-12-07T06:26:56;95.80;;;17.63;;
1751;SDS011;873;47.696;8.068;2022-12-07T06:29:21;154.30;;;17.97;;
1751;SDS011;873;47.696;8.068;2022-12-07T06:31:47;109.87;;;15.67;;
1751;SDS011;873;47.696;8.068;2022-12-07T06:34:14;162.93;;;19.33;;
1751;SDS011;873;47.696;8.068;2022-12-07T06:36:41;118.23;;;14.23;;
1751;SDS011;873;47.696;8.068;2022-12-07T06:39:06;116.27;;;15.33;;
1751;SDS011;873;47.696;8.068;2022-12-07T06:41:34;342.03;;;24.07;;
1751;SDS011;873;47.696;8.068;2022-12-07T06:44:02;181.87;;;18.00;;
1751;SDS011;873;47.696;8.068;2022-12-07T06:46:28;113.50;;;15.03;;
1751;SDS011;873;47.696;8.068;2022-12-07T06:48:54;133.07;;;17.67;;
1751;SDS011;873;47.696;8.068;2022-12-07T06:51:20;235.70;;;19.80;;
1751;SDS011;873;47.696;8.068;2022-12-07T06:53:45;58.50;;;13.00;;
1751;SDS011;873;47.696;8.068;2022-12-07T06:56:11;43.03;;;11.90;;
1751;SDS011;873;47.696;8.068;2022-12-07T06:58:36;60.37;;;14.13;;
1751;SDS011;873;47.696;8.068;2022-12-07T07:01:02;29.10;;;11.40;;
1751;SDS011;873;47.696;8.068;2022-12-07T07:03:28;23.77;;;11.90;;
1751;SDS011;873;47.696;8.068;2022-12-07T07:05:54;22.90;;;10.60;;
1751;SDS011;873;47.696;8.068;2022-12-07T07:08:19;22.00;;;11.70;;
1751;SDS011;873;47.696;8.068;2022-12-07T07:10:44;22.83;;;10.73;;
1751;SDS011;873;47.696;8.068;2022-12-07T07:13:10;18.43;;;10.20;;
1751;SDS011;873;47.696;8.068;2022-12-07T07:15:37;20.33;;;9.97;;
1751;SDS011;873;47.696;8.068;2022-12-07T07:18:03;20.70;;;10.40;;
1751;SDS011;873;47.696;8.068;2022-12-07T07:20:29;20.37;;;10.30;;
1751;SDS011;873;47.696;8.068;2022-12-07T07:22:54;16.40;;;9.33;;
1751;SDS011;873;47.696;8.068;2022-12-07T07:25:21;14.23;;;8.63;;
1751;SDS011;873;47.696;8.068;2022-12-07T07:27:46;17.53;;;9.50;;
1751;SDS011;873;47.696;8.068;2022-12-07T07:30:12;14.80;;;8.20;;
1751;SDS011;873;47.696;8.068;2022-12-07T07:32:37;18.40;;;8.37;;
1751;SDS011;873;47.696;8.068;2022-12-07T07:35:03;12.73;;;7.57;;
1751;SDS011;873;47.696;8.068;2022-12-07T07:37:29;16.00;;;8.80;;
1751;SDS011;873;47.696;8.068;2022-12-07T07:39:54;12.70;;;8.10;;
1751;SDS011;873;47.696;8.068;2022-12-07T07:42:20;19.60;;;10.00;;
1751;SDS011;873;47.696;8.068;2022-12-07T07:44:45;19.83;;;11.10;;
1751;SDS011;873;47.696;8.068;2022-12-07T07:47:12;16.80;;;10.30;;
1751;SDS011;873;47.696;8.068;2022-12-07T07:49:37;17.27;;;9.53;;
1751;SDS011;873;47.696;8.068;2022-12-07T07:52:02;14.60;;;7.67;;
1751;SDS011;873;47.696;8.068;2022-12-07T07:54:28;8.87;;;5.93;;
1751;SDS011;873;47.696;8.068;2022-12-07T07:56:54;9.37;;;6.00;;
1751;SDS011;873;47.696;8.068;2022-12-07T07:59:19;8.93;;;6.03;;
1751;SDS011;873;47.696;8.068;2022-12-07T08:01:45;5.63;;;4.13;;
1751;SDS011;873;47.696;8.068;2022-12-07T08:04:10;6.93;;;4.13;;
1751;SDS011;873;47.696;8.068;2022-12-07T08:06:36;6.37;;;4.80;;
1751;SDS011;873;47.696;8.068;2022-12-07T08:09:02;5.93;;;4.00;;
1751;SDS011;873;47.696;8.068;2022-12-07T08:11:28;6.80;;;4.47;;
1751;SDS011;873;47.696;8.068;2022-12-07T08:13:54;6.47;;;4.37;;
1751;SDS011;873;47.696;8.068;2022-12-07T08:16:19;5.93;;;3.87;;
1751;SDS011;873;47.696;8.068;2022-12-07T08:18:45;6.03;;;4.20;;
1751;SDS011;873;47.696;8.068;2022-12-07T08:21:11;7.83;;;4.57;;
1751;SDS011;873;47.696;8.068;2022-12-07T08:23:38;9.10;;;5.30;;
1751;SDS011;873;47.696;8.068;2022-12-07T08:26:04;5.97;;;4.23;;
1751;SDS011;873;47.696;8.068;2022-12-07T08:28:32;7.57;;;4.83;;
1751;SDS011;873;47.696;8.068;2022-12-07T08:30:59;7.63;;;5.23;;
1751;SDS011;873;47.696;8.068;2022-12-07T08:33:26;87.33;;;10.77;;
1751;SDS011;873;47.696;8.068;2022-12-07T08:35:52;105.83;;;12.30;;
1751;SDS011;873;47.696;8.068;2022-12-07T08:38:17;15.27;;;9.20;;
1751;SDS011;873;47.696;8.068;2022-12-07T08:40:43;16.40;;;7.70;;
1751;SDS011;873;47.696;8.068;2022-12-07T08:43:08;12.77;;;7.30;;
1751;SDS011;873;47.696;8.068;2022-12-07T08:45:34;11.57;;;7.77;;
1751;SDS011;873;47.696;8.068;2022-12-07T08:48:02;10.83;;;7.40;;
1751;SDS011;873;47.696;8.068;2022-12-07T08:50:31;11.13;;;7.40;;
1751;SDS011;873;47.696;8.068;2022-12-07T08:52:57;13.03;;;7.93;;
1751;SDS011;873;47.696;8.068;2022-12-07T08:55:24;13.97;;;8.30;;
1751;SDS011;873;47.696;8.068;2022-12-07T08:57:50;10.60;;;6.83;;
1751;SDS011;873;47.696;8.068;2022-12-07T09:00:16;10.83;;;6.77;;
1751;SDS011;873;47.696;8.068;2022-12-07T09:02:42;9.90;;;7.17;;
1751;SDS011;873;47.696;8.068;2022-12-07T09:05:09;8.90;;;6.57;;
1751;SDS011;873;47.696;8.068;2022-12-07T09:07:35;8.87;;;5.77;;
1751;SDS011;873;47.696;8.068;2022-12-07T09:10:01;8.93;;;5.87;;
1751;SDS011;873;47.696;8.068;2022-12-07T09:12:28;10.57;;;7.40;;
1751;SDS011;873;47.696;8.068;2022-12-07T09:14:54;12.47;;;7.60;;
1751;SDS011;873;47.696;8.068;2022-12-07T09:17:20;14.27;;;9.13;;
1751;SDS011;873;47.696;8.068;2022-12-07T09:19:45;12.10;;;8.43;;
1751;SDS011;873;47.696;8.068;2022-12-07T09:22:11;14.80;;;9.27;;
1751;SDS011;873;47.696;8.068;2022-12-07T09:24:36;14.13;;;9.10;;
1751;SDS011;873;47.696;8.068;2022-12-07T09:27:02;17.37;;;10.00;;
1751;SDS011;873;47.696;8.068;2022-12-07T09:29:27;15.20;;;10.40;;
1751;SDS011;873;47.696;8.068;2022-12-07T09:31:53;17.03;;;9.60;;
1751;SDS011;873;47.696;8.068;2022-12-07T09:34:18;21.73;;;12.50;;
1751;SDS011;873;47.696;8.068;2022-12-07T09:36:45;19.97;;;11.50;;
1751;SDS011;873;47.696;8.068;2022-12-07T09:39:11;19.43;;;11.83;;
1751;SDS011;873;47.696;8.068;2022-12-07T09:41:37;21.07;;;11.37;;
1751;SDS011;873;47.696;8.068;2022-12-07T09:44:08;14.20;;;9.40;;
1751;SDS011;873;47.696;8.068;2022-12-07T09:46:38;16.30;;;9.97;;
1751;SDS011;873;47.696;8.068;2022-12-07T09:49:05;16.67;;;10.60;;
1751;SDS011;873;47.696;8.068;2022-12-07T09:51:35;13.70;;;8.80;;
1751;SDS011;873;47.696;8.068;2022-12-07T09:54:01;10.07;;;6.83;;
1751;SDS011;873;47.696;8.068;2022-12-07T09:56:28;10.17;;;7.60;;
1751;SDS011;873;47.696;8.068;2022-12-07T09:58:58;9.13;;;6.50;;
1751;SDS011;873;47.696;8.068;2022-12-07T10:01:28;8.83;;;5.67;;
1751;SDS011;873;47.696;8.068;2022-12-07T10:03:59;8.90;;;5.73;;
1751;SDS011;873;47.696;8.068;2022-12-07T10:06:33;8.70;;;6.30;;
1751;SDS011;873;47.696;8.068;2022-12-07T10:08:59;9.50;;;6.70;;
1751;SDS011;873;47.696;8.068;2022-12-07T10:11:24;8.23;;;6.13;;
1751;SDS011;873;47.696;8.068;2022-12-07T10:13:52;9.20;;;6.77;;
1751;SDS011;873;47.696;8.068;2022-12-07T10:24:39;13.67;;;8.80;;
1751;SDS011;873;47.696;8.068;2022-12-07T10:27:16;12.40;;;7.90;;
1751;SDS011;873;47.696;8.068;2022-12-07T10:29:53;9.60;;;6.63;;
1751;SDS011;873;47.696;8.068;2022-12-07T10:37:51;4.17;;;2.87;;
1751;SDS011;873;47.696;8.068;2022-12-07T10:43:17;6.23;;;3.97;;
1751;SDS011;873;47.696;8.068;2022-12-07T10:48:54;4.17;;;3.20;;
1751;SDS011;873;47.696;8.068;2022-12-07T10:59:42;2.57;;;1.90;;
1751;SDS011;873;47.696;8.068;2022-12-07T11:05:17;2.63;;;1.93;;
1751;SDS011;873;47.696;8.068;2022-12-07T11:14:03;1.60;;;1.30;;
1751;SDS011;873;47.696;8.068;2022-12-07T11:22:28;3.00;;;2.17;;
1751;SDS011;873;47.696;8.068;2022-12-07T11:25:13;3.50;;;2.23;;
1751;SDS011;873;47.696;8.068;2022-12-07T11:27:45;1.87;;;1.63;;
1751;SDS011;873;47.696;8.068;2022-12-07T11:30:18;2.60;;;1.90;;
1751;SDS011;873;47.696;8.068;2022-12-07T11:35:26;1.83;;;1.30;;
1751;SDS011;873;47.696;8.068;2022-12-07T11:38:17;1.67;;;1.30;;
1751;SDS011;873;47.696;8.068;2022-12-07T11:40:48;2.20;;;1.40;;
1751;SDS011;873;47.696;8.068;2022-12-07T11:43:19;1.77;;;1.40;;
1751;SDS011;873;47.696;8.068;2022-12-07T11:45:52;1.90;;;1.53;;
1751;SDS011;873;47.696;8.068;2022-12-07T11:51:26;2.17;;;1.80;;
1751;SDS011;873;47.696;8.068;2022-12-07T11:53:55;2.73;;;2.10;;
1751;SDS011;873;47.696;8.068;2022-12-07T11:56:24;2.10;;;1.80;;
1751;SDS011;873;47.696;8.068;2022-12-07T12:06:47;2.40;;;2.20;;
1751;SDS011;873;47.696;8.068;2022-12-07T12:09:14;2.20;;;2.00;;
1751;SDS011;873;47.696;8.068;2022-12-07T12:14:37;2.60;;;1.00;;
1751;SDS011;873;47.696;8.068;2022-12-07T12:22:53;2.63;;;1.45;;
1751;SDS011;873;47.696;8.068;2022-12-07T12:25:49;2.43;;;1.40;;
1751;SDS011;873;47.696;8.068;2022-12-07T12:28:20;2.63;;;2.37;;
1751;SDS011;873;47.696;8.068;2022-12-07T12:33:43;3.30;;;2.43;;
1751;SDS011;873;47.696;8.068;2022-12-07T12:46:58;5.72;;;4.32;;
1751;SDS011;873;47.696;8.068;2022-12-07T12:57:46;7.95;;;6.38;;
1751;SDS011;873;47.696;8.068;2022-12-07T13:00:21;8.77;;;5.97;;
1751;SDS011;873;47.696;8.068;2022-12-07T13:02:52;8.60;;;6.43;;
1751;SDS011;873;47.696;8.068;2022-12-07T13:05:20;7.73;;;5.93;;
1751;SDS011;873;47.696;8.068;2022-12-07T13:07:52;10.90;;;7.47;;
1751;SDS011;873;47.696;8.068;2022-12-07T13:10:20;8.33;;;6.40;;
1751;SDS011;873;47.696;8.068;2022-12-07T13:26:20;7.87;;;6.30;;
1751;SDS011;873;47.696;8.068;2022-12-07T13:29:16;8.90;;;7.10;;
1751;SDS011;873;47.696;8.068;2022-12-07T13:37:11;10.70;;;7.37;;
1751;SDS011;873;47.696;8.068;2022-12-07T13:39:48;9.73;;;7.57;;
1751;SDS011;873;47.696;8.068;2022-12-07T13:42:28;9.70;;;7.47;;
1751;SDS011;873;47.696;8.068;2022-12-07T13:44:55;13.13;;;7.70;;
1751;SDS011;873;47.696;8.068;2022-12-07T13:49:57;12.10;;;8.37;;
1751;SDS011;873;47.696;8.068;2022-12-07T13:55:05;9.80;;;7.47;;
1751;SDS011;873;47.696;8.068;2022-12-07T13:57:38;10.67;;;7.90;;
1751;SDS011;873;47.696;8.068;2022-12-07T14:00:05;9.63;;;7.27;;
1751;SDS011;873;47.696;8.068;2022-12-07T14:02:57;8.97;;;7.23;;
1751;SDS011;873;47.696;8.068;2022-12-07T14:05:35;9.23;;;7.43;;
1751;SDS011;873;47.696;8.068;2022-12-07T14:08:02;8.63;;;6.70;;
1751;SDS011;873;47.696;8.068;2022-12-07T14:16:01;12.10;;;7.47;;
1751;SDS011;873;47.696;8.068;2022-12-07T14:18:29;8.87;;;7.10;;
1751;SDS011;873;47.696;8.068;2022-12-07T14:21:04;10.63;;;7.00;;
1751;SDS011;873;47.696;8.068;2022-12-07T14:23:30;11.53;;;7.47;;
1751;SDS011;873;47.696;8.068;2022-12-07T14:26:13;10.60;;;7.20;;
1751;SDS011;873;47.696;8.068;2022-12-07T14:28:41;8.83;;;6.27;;
1751;SDS011;873;47.696;8.068;2022-12-07T14:31:10;10.77;;;6.83;;
1751;SDS011;873;47.696;8.068;2022-12-07T14:33:38;10.00;;;7.17;;
1751;SDS011;873;47.696;8.068;2022-12-07T14:36:04;11.37;;;7.57;;
1751;SDS011;873;47.696;8.068;2022-12-07T14:38:29;8.57;;;5.93;;
1751;SDS011;873;47.696;8.068;2022-12-07T14:40:55;10.90;;;6.67;;
1751;SDS011;873;47.696;8.068;2022-12-07T14:43:41;8.27;;;5.80;;
1751;SDS011;873;47.696;8.068;2022-12-07T14:46:07;7.57;;;5.70;;
1751;SDS011;873;47.696;8.068;2022-12-07T14:48:34;7.13;;;5.63;;
1751;SDS011;873;47.696;8.068;2022-12-07T14:50:59;7.77;;;6.17;;
1751;SDS011;873;47.696;8.068;2022-12-07T14:53:27;7.87;;;5.97;;
1751;SDS011;873;47.696;8.068;2022-12-07T14:55:54;9.47;;;6.00;;
1751;SDS011;873;47.696;8.068;2022-12-07T14:58:20;8.53;;;5.80;;
1751;SDS011;873;47.696;8.068;2022-12-07T15:00:45;8.30;;;5.70;;
1751;SDS011;873;47.696;8.068;2022-12-07T15:03:12;8.20;;;6.00;;
1751;SDS011;873;47.696;8.068;2022-12-07T15:05:38;8.00;;;5.43;;
1751;SDS011;873;47.696;8.068;2022-12-07T15:08:04;10.10;;;5.50;;
1751;SDS011;873;47.696;8.068;2022-12-07T15:10:31;6.73;;;5.70;;
1751;SDS011;873;47.696;8.068;2022-12-07T15:13:00;7.80;;;5.90;;
1751;SDS011;873;47.696;8.068;2022-12-07T15:15:47;10.03;;;5.67;;
1751;SDS011;873;47.696;8.068;2022-12-07T15:18:13;6.50;;;5.30;;
1751;SDS011;873;47.696;8.068;2022-12-07T15:20:39;10.93;;;5.40;;
1751;SDS011;873;47.696;8.068;2022-12-07T15:23:05;6.97;;;4.97;;
1751;SDS011;873;47.696;8.068;2022-12-07T15:25:30;7.57;;;5.30;;
1751;SDS011;873;47.696;8.068;2022-12-07T15:27:56;6.67;;;5.30;;
1751;SDS011;873;47.696;8.068;2022-12-07T15:30:21;6.10;;;4.83;;
1751;SDS011;873;47.696;8.068;2022-12-07T15:32:50;8.23;;;5.93;;
1751;SDS011;873;47.696;8.068;2022-12-07T15:35:16;9.30;;;5.40;;
1751;SDS011;873;47.696;8.068;2022-12-07T15:37:41;9.43;;;5.80;;
1751;SDS011;873;47.696;8.068;2022-12-07T15:40:07;6.70;;;4.87;;
1751;SDS011;873;47.696;8.068;2022-12-07T15:42:34;6.67;;;5.33;;
1751;SDS011;873;47.696;8.068;2022-12-07T15:45:02;7.13;;;5.47;;
1751;SDS011;873;47.696;8.068;2022-12-07T15:47:29;6.97;;;5.80;;
1751;SDS011;873;47.696;8.068;2022-12-07T15:49:56;5.97;;;4.87;;
1751;SDS011;873;47.696;8.068;2022-12-07T15:52:22;7.83;;;5.77;;
1751;SDS011;873;47.696;8.068;2022-12-07T15:54:47;7.60;;;5.40;;
1751;SDS011;873;47.696;8.068;2022-12-07T15:57:13;7.50;;;5.27;;
1751;SDS011;873;47.696;8.068;2022-12-07T15:59:39;6.50;;;5.27;;
1751;SDS011;873;47.696;8.068;2022-12-07T16:02:04;7.83;;;5.47;;
1751;SDS011;873;47.696;8.068;2022-12-07T16:04:30;6.70;;;5.63;;
1751;SDS011;873;47.696;8.068;2022-12-07T16:06:55;7.17;;;5.57;;
1751;SDS011;873;47.696;8.068;2022-12-07T16:09:21;6.53;;;5.00;;
1751;SDS011;873;47.696;8.068;2022-12-07T16:11:47;6.20;;;4.67;;
1751;SDS011;873;47.696;8.068;2022-12-07T16:14:15;9.87;;;6.43;;
1751;SDS011;873;47.696;8.068;2022-12-07T16:16:40;9.00;;;5.27;;
1751;SDS011;873;47.696;8.068;2022-12-07T16:19:07;8.40;;;6.10;;
1751;SDS011;873;47.696;8.068;2022-12-07T16:21:33;8.93;;;6.57;;
1751;SDS011;873;47.696;8.068;2022-12-07T16:24:00;8.77;;;6.40;;
1751;SDS011;873;47.696;8.068;2022-12-07T16:26:26;9.13;;;6.50;;
1751;SDS011;873;47.696;8.068;2022-12-07T16:28:52;7.10;;;5.67;;
1751;SDS011;873;47.696;8.068;2022-12-07T16:31:19;8.10;;;5.30;;
1751;SDS011;873;47.696;8.068;2022-12-07T16:33:46;6.13;;;4.83;;
1751;SDS011;873;47.696;8.068;2022-12-07T16:36:12;7.80;;;5.90;;
1751;SDS011;873;47.696;8.068;2022-12-07T16:38:40;11.50;;;5.40;;
1751;SDS011;873;47.696;8.068;2022-12-07T16:41:06;7.57;;;5.33;;
1751;SDS011;873;47.696;8.068;2022-12-07T16:43:32;7.63;;;5.27;;
1751;SDS011;873;47.696;8.068;2022-12-07T16:45:58;6.83;;;5.00;;
1751;SDS011;873;47.696;8.068;2022-12-07T16:48:24;6.87;;;4.87;;
1751;SDS011;873;47.696;8.068;2022-12-07T16:50:49;7.10;;;5.40;;
1751;SDS011;873;47.696;8.068;2022-12-07T16:53:15;8.03;;;5.47;;
1751;SDS011;873;47.696;8.068;2022-12-07T16:55:43;9.57;;;5.90;;
1751;SDS011;873;47.696;8.068;2022-12-07T16:58:10;11.23;;;5.75;;
1751;SDS011;873;47.696;8.068;2022-12-07T17:00:38;6.85;;;5.30;;
1751;SDS011;873;47.696;8.068;2022-12-07T17:03:04;7.32;;;5.30;;
1751;SDS011;873;47.696;8.068;2022-12-07T17:05:30;7.90;;;5.83;;
1751;SDS011;873;47.696;8.068;2022-12-07T17:07:56;8.60;;;6.27;;
1751;SDS011;873;47.696;8.068;2022-12-07T17:10:23;8.80;;;5.73;;
1751;SDS011;873;47.696;8.068;2022-12-07T17:12:49;5.90;;;5.00;;
1751;SDS011;873;47.696;8.068;2022-12-07T17:15:15;6.97;;;5.03;;
1751;SDS011;873;47.696;8.068;2022-12-07T17:17:42;10.30;;;4.93;;
1751;SDS011;873;47.696;8.068;2022-12-07T17:20:09;6.47;;;4.45;;
1751;SDS011;873;47.696;8.068;2022-12-07T17:22:35;7.20;;;5.13;;
1751;SDS011;873;47.696;8.068;2022-12-07T17:25:00;5.77;;;4.47;;
1751;SDS011;873;47.696;8.068;2022-12-07T17:27:27;6.18;;;3.85;;
1751;SDS011;873;47.696;8.068;2022-12-07T17:29:52;5.60;;;4.17;;
1751;SDS011;873;47.696;8.068;2022-12-07T17:32:18;6.07;;;4.47;;
1751;SDS011;873;47.696;8.068;2022-12-07T17:34:43;5.47;;;3.80;;
1751;SDS011;873;47.696;8.068;2022-12-07T17:37:09;7.67;;;4.87;;
1751;SDS011;873;47.696;8.068;2022-12-07T17:39:34;4.40;;;3.47;;
1751;SDS011;873;47.696;8.068;2022-12-07T17:42:00;7.00;;;5.10;;
1751;SDS011;873;47.696;8.068;2022-12-07T17:44:46;6.77;;;6.07;;
1751;SDS011;873;47.696;8.068;2022-12-07T17:47:12;7.30;;;5.77;;
1751;SDS011;873;47.696;8.068;2022-12-07T17:49:39;5.90;;;3.60;;